Time;durP1;ratioP1;P1;durP2;ratioP2;P2;SDS_P1;SDS_P2;PMS_P1;PMS_P2;Temp;Humidity;BMP_temperature;BMP_pressure;BME280_temperature;BME280_humidity;BME280_pressure;Samples;Min_cycle;Max_cycle;Signal;HPM_P1;HPM_P2
2022/02/04 00:07:57;;;;;;;33.70;22.88;;;;;;;;;;5072892;28;20665;-62
2022/02/04 00:21:40;;;;;;;27.83;22.17;;;;;;;;;;5093483;28;20262;-63
2022/02/04 00:24:09;;;;;;;32.00;22.20;;;;;;;;;;5093946;28;20615;-62
2022/02/04 00:26:44;;;;;;;28.48;20.17;;;;;;;;;;5093468;28;20224;-63
2022/02/04 00:29:16;;;;;;;31.08;23.38;;;;;;;;;;5093731;28;20184;-62
2022/02/04 00:31:48;;;;;;;33.42;23.00;;;;;;;;;;5093466;28;20185;-63
2022/02/04 00:34:19;;;;;;;28.83;20.80;;;;;;;;;;5093067;28;20254;-62
2022/02/04 00:36:52;;;;;;;32.30;21.67;;;;;;;;;;5093411;28;20231;-63
2022/02/04 00:39:24;;;;;;;32.47;21.02;;;;;;;;;;5093747;28;20310;-63
2022/02/04 00:41:53;;;;;;;30.77;21.98;;;;;;;;;;5094006;28;20604;-63
2022/02/04 00:44:24;;;;;;;34.13;22.08;;;;;;;;;;5093146;28;20200;-62
2022/02/04 00:49:49;;;;;;;30.85;21.60;;;;;;;;;;5093381;28;20204;-62
2022/02/04 00:52:22;;;;;;;30.15;22.23;;;;;;;;;;5095947;28;20181;-63
2022/02/04 00:54:55;;;;;;;35.35;23.25;;;;;;;;;;5097324;28;20181;-62
2022/02/04 00:57:41;;;;;;;32.47;21.55;;;;;;;;;;5096882;28;20716;-62
2022/02/04 01:27:51;;;;;;;28.80;20.45;;;;;;;;;;5096647;28;20184;-63
2022/02/04 01:30:26;;;;;;;31.60;20.23;;;;;;;;;;5096423;28;20227;-62
2022/02/04 01:32:53;;;;;;;32.20;23.55;;;;;;;;;;5096678;28;20714;-62
2022/02/04 01:35:21;;;;;;;30.65;20.27;;;;;;;;;;5096712;28;20236;-62
2022/02/04 01:37:49;;;;;;;32.33;22.92;;;;;;;;;;5097071;28;20219;-62
2022/02/04 01:40:16;;;;;;;33.70;21.45;;;;;;;;;;5096561;28;20276;-62
2022/02/04 01:42:43;;;;;;;32.88;21.92;;;;;;;;;;5095868;28;20704;-63
2022/02/04 01:45:11;;;;;;;29.15;20.23;;;;;;;;;;5095829;28;20280;-62
2022/02/04 01:50:20;;;;;;;31.33;20.85;;;;;;;;;;5095496;28;20280;-62
2022/02/04 01:52:48;;;;;;;28.33;19.77;;;;;;;;;;5096454;28;20282;-62
2022/02/04 01:55:15;;;;;;;32.47;21.20;;;;;;;;;;5096036;28;20619;-62
2022/02/04 01:57:44;;;;;;;27.08;19.88;;;;;;;;;;5095904;28;20304;-62
2022/02/04 02:00:12;;;;;;;28.13;21.70;;;;;;;;;;5095832;28;20292;-62
2022/02/04 02:02:40;;;;;;;28.05;18.88;;;;;;;;;;5095384;28;20193;-63
2022/02/04 02:05:08;;;;;;;26.95;19.02;;;;;;;;;;5095289;28;20249;-62
2022/02/04 02:07:41;;;;;;;30.75;20.40;;;;;;;;;;5095432;28;20683;-62
2022/02/04 02:10:11;;;;;;;28.10;19.30;;;;;;;;;;5095784;28;20275;-62
2022/02/04 02:12:47;;;;;;;28.50;19.15;;;;;;;;;;5095419;28;20638;-62
2022/02/04 02:15:21;;;;;;;29.20;20.10;;;;;;;;;;5096134;28;20206;-63
2022/02/04 02:46:07;;;;;;;20.67;15.85;;;;;;;;;;5091773;28;20182;-63
2022/02/04 02:49:00;;;;;;;23.50;17.30;;;;;;;;;;5091517;28;20224;-62
2022/02/04 02:51:41;;;;;;;25.17;18.65;;;;;;;;;;5091465;28;20186;-62
2022/02/04 02:54:28;;;;;;;26.42;17.73;;;;;;;;;;5090808;28;20655;-62
2022/02/04 02:57:41;;;;;;;23.67;18.98;;;;;;;;;;5091156;28;20192;-63
2022/02/04 03:00:22;;;;;;;25.75;17.75;;;;;;;;;;5091026;28;20198;-63
2022/02/04 03:02:51;;;;;;;28.23;20.60;;;;;;;;;;5090575;28;20259;-62
2022/02/04 03:05:18;;;;;;;27.83;19.80;;;;;;;;;;5091197;28;20201;-63
2022/02/04 03:07:45;;;;;;;25.30;17.92;;;;;;;;;;5090511;28;20200;-62
2022/02/04 03:10:12;;;;;;;26.23;18.70;;;;;;;;;;5090885;28;20201;-62
2022/02/04 03:12:41;;;;;;;29.17;20.90;;;;;;;;;;5090276;28;20304;-63
2022/02/04 03:15:11;;;;;;;27.83;21.08;;;;;;;;;;5091084;28;20202;-63
2022/02/04 03:17:39;;;;;;;30.50;21.08;;;;;;;;;;5090674;28;20200;-63
2022/02/04 03:20:09;;;;;;;31.83;21.40;;;;;;;;;;5090662;28;20193;-62
2022/02/04 03:22:37;;;;;;;29.30;21.90;;;;;;;;;;5090202;28;20686;-62
2022/02/04 03:25:08;;;;;;;34.90;23.08;;;;;;;;;;5090446;28;20557;-63
2022/02/04 03:27:40;;;;;;;35.30;23.05;;;;;;;;;;5090877;28;20185;-63
2022/02/04 03:30:13;;;;;;;31.02;22.58;;;;;;;;;;5090193;28;20185;-62
2022/02/04 03:32:48;;;;;;;35.40;24.45;;;;;;;;;;5090623;28;20190;-62
2022/02/04 03:35:20;;;;;;;32.00;22.50;;;;;;;;;;5090636;28;20188;-63
2022/02/04 03:37:47;;;;;;;35.13;24.60;;;;;;;;;;5090593;28;20201;-62
2022/02/04 03:40:14;;;;;;;37.95;25.48;;;;;;;;;;5090284;28;20193;-63
2022/02/04 03:42:42;;;;;;;37.85;24.27;;;;;;;;;;5090450;28;20233;-62
2022/02/04 03:45:09;;;;;;;38.80;26.60;;;;;;;;;;5090556;28;20192;-63
2022/02/04 03:47:36;;;;;;;34.42;24.73;;;;;;;;;;5090481;28;20284;-62
2022/02/04 03:50:06;;;;;;;33.97;25.15;;;;;;;;;;5089674;28;20281;-62
2022/02/04 03:52:33;;;;;;;36.17;24.52;;;;;;;;;;5086023;28;20203;-63
2022/02/04 03:55:00;;;;;;;34.90;25.08;;;;;;;;;;5076098;28;20650;-63
2022/02/04 03:57:28;;;;;;;34.42;24.17;;;;;;;;;;5077038;28;20566;-62
2022/02/04 03:59:55;;;;;;;36.70;25.17;;;;;;;;;;5076863;28;20197;-63
2022/02/04 04:02:22;;;;;;;32.20;22.15;;;;;;;;;;5076241;28;20641;-62
2022/02/04 04:04:49;;;;;;;32.97;23.90;;;;;;;;;;5076228;28;20205;-62
2022/02/04 04:07:18;;;;;;;33.20;23.55;;;;;;;;;;5075883;28;20289;-62
2022/02/04 04:09:50;;;;;;;32.90;24.42;;;;;;;;;;5075818;28;20198;-62
2022/02/04 04:12:19;;;;;;;32.30;23.70;;;;;;;;;;5075930;28;20195;-64
2022/02/04 04:14:51;;;;;;;33.00;22.15;;;;;;;;;;5076114;28;20205;-63
2022/02/04 04:17:18;;;;;;;30.60;23.02;;;;;;;;;;5075694;28;20280;-62
2022/02/04 04:19:45;;;;;;;30.85;23.35;;;;;;;;;;5075973;28;20197;-62
2022/02/04 04:22:12;;;;;;;32.38;22.15;;;;;;;;;;5076573;28;20308;-63
2022/02/04 04:24:41;;;;;;;38.35;24.15;;;;;;;;;;5075862;28;20285;-62
2022/02/04 04:27:08;;;;;;;29.73;21.75;;;;;;;;;;5075514;28;20392;-62
2022/02/04 04:29:35;;;;;;;25.48;19.30;;;;;;;;;;5075797;28;20206;-62
2022/02/04 04:32:03;;;;;;;32.28;21.90;;;;;;;;;;5075357;28;20296;-62
2022/02/04 04:34:30;;;;;;;32.42;21.70;;;;;;;;;;5076488;28;20229;-62
2022/02/04 04:36:57;;;;;;;32.50;21.98;;;;;;;;;;5075611;28;20203;-62
2022/02/04 04:39:29;;;;;;;27.45;19.10;;;;;;;;;;5076312;28;20198;-62
2022/02/04 04:42:11;;;;;;;26.60;19.50;;;;;;;;;;5075506;28;20266;-62
2022/02/04 05:26:16;;;;;;;20.35;13.80;;;;;;;;;;5074451;28;20200;-61
2022/02/04 05:28:55;;;;;;;21.90;14.35;;;;;;;;;;5081372;28;20296;-61
2022/02/04 05:31:24;;;;;;;19.15;14.73;;;;;;;;;;5095161;28;20223;-61
2022/02/04 05:33:51;;;;;;;22.65;15.32;;;;;;;;;;5094728;28;20225;-61
2022/02/04 05:36:19;;;;;;;21.85;13.82;;;;;;;;;;5094265;28;20284;-61
2022/02/04 05:38:46;;;;;;;18.23;14.10;;;;;;;;;;5094586;28;20200;-62
2022/02/04 05:41:19;;;;;;;19.90;13.95;;;;;;;;;;5092878;28;20225;-62
2022/02/04 05:43:47;;;;;;;19.98;14.55;;;;;;;;;;5094483;28;20196;-61
2022/02/04 05:46:18;;;;;;;20.88;13.40;;;;;;;;;;5093540;28;20204;-62
2022/02/04 05:48:51;;;;;;;19.67;14.48;;;;;;;;;;5094088;28;20183;-62
2022/02/04 05:51:31;;;;;;;17.10;13.25;;;;;;;;;;5095291;28;20638;-62
2022/02/04 05:54:05;;;;;;;18.02;12.95;;;;;;;;;;5093990;28;20190;-62
2022/02/04 05:56:39;;;;;;;18.05;12.43;;;;;;;;;;5094704;28;20204;-61
2022/02/04 05:59:15;;;;;;;17.40;12.68;;;;;;;;;;5094355;28;20646;-61
2022/02/04 06:01:50;;;;;;;16.73;13.45;;;;;;;;;;5094110;28;20308;-61
2022/02/04 06:04:34;;;;;;;15.85;12.60;;;;;;;;;;5094538;28;20625;-61
2022/02/04 06:07:21;;;;;;;17.33;12.55;;;;;;;;;;5094219;28;20233;-63
2022/02/04 06:13:05;;;;;;;18.48;13.48;;;;;;;;;;5094584;28;20704;-62
2022/02/04 06:23:44;;;;;;;15.55;12.25;;;;;;;;;;5093749;28;20668;-62
2022/02/04 06:26:12;;;;;;;18.30;12.68;;;;;;;;;;5093681;28;20239;-61
2022/02/04 06:28:41;;;;;;;14.98;11.60;;;;;;;;;;5094581;28;20302;-61
2022/02/04 06:31:08;;;;;;;17.15;12.68;;;;;;;;;;5093533;28;20261;-63
2022/02/04 06:33:35;;;;;;;16.15;13.10;;;;;;;;;;5093791;28;20227;-67
2022/02/04 06:36:04;;;;;;;16.10;12.02;;;;;;;;;;5093479;28;20264;-63
2022/02/04 06:38:32;;;;;;;16.75;12.52;;;;;;;;;;5093694;28;20284;-63
2022/02/04 06:40:59;;;;;;;15.70;11.07;;;;;;;;;;5093162;28;20321;-62
2022/02/04 06:43:26;;;;;;;17.70;11.90;;;;;;;;;;5093252;28;20267;-63
2022/02/04 06:45:53;;;;;;;15.20;11.25;;;;;;;;;;5093676;28;20593;-62
2022/02/04 06:48:21;;;;;;;17.02;11.32;;;;;;;;;;5093643;28;20290;-64
2022/02/04 06:50:48;;;;;;;14.75;11.15;;;;;;;;;;5093679;28;20283;-62
2022/02/04 06:53:17;;;;;;;14.02;11.25;;;;;;;;;;5093633;28;20227;-62
2022/02/04 06:55:44;;;;;;;15.77;11.57;;;;;;;;;;5093777;28;20602;-62
2022/02/04 06:58:12;;;;;;;16.05;11.40;;;;;;;;;;5093218;28;20284;-62
2022/02/04 07:00:40;;;;;;;17.02;11.27;;;;;;;;;;5093203;28;20196;-62
2022/02/04 07:03:07;;;;;;;18.35;11.30;;;;;;;;;;5093404;28;20270;-63
2022/02/04 07:05:41;;;;;;;16.48;12.45;;;;;;;;;;5093178;28;20650;-63
2022/02/04 07:08:12;;;;;;;15.10;10.70;;;;;;;;;;5093252;28;20190;-62
2022/02/04 07:10:57;;;;;;;12.48;10.43;;;;;;;;;;5093113;28;20189;-62
2022/02/04 07:13:29;;;;;;;14.82;11.68;;;;;;;;;;5093927;28;20534;-62
2022/02/04 07:16:10;;;;;;;14.15;11.52;;;;;;;;;;5093936;28;20541;-62
2022/02/04 07:21:22;;;;;;;21.13;11.40;;;;;;;;;;5093120;28;20688;-62
2022/02/04 07:23:49;;;;;;;12.60;10.93;;;;;;;;;;5092959;28;20217;-63
2022/02/04 07:26:17;;;;;;;15.52;9.80;;;;;;;;;;5093289;28;20228;-62
2022/02/04 07:28:45;;;;;;;16.25;9.52;;;;;;;;;;5096005;28;20554;-62
2022/02/04 07:31:13;;;;;;;15.23;10.43;;;;;;;;;;5097446;28;20691;-62
2022/02/04 07:33:45;;;;;;;15.13;10.00;;;;;;;;;;5096897;28;20203;-62
2022/02/04 07:41:50;;;;;;;11.68;10.00;;;;;;;;;;5096309;28;20303;-62
2022/02/04 07:44:18;;;;;;;13.20;9.70;;;;;;;;;;5096409;28;20197;-62
2022/02/04 07:46:45;;;;;;;10.98;8.50;;;;;;;;;;5096396;28;20197;-62
2022/02/04 07:49:13;;;;;;;15.45;9.50;;;;;;;;;;5096374;28;20196;-62
2022/02/04 07:51:40;;;;;;;9.15;8.00;;;;;;;;;;5096628;28;20239;-62
2022/02/04 07:54:08;;;;;;;12.02;8.18;;;;;;;;;;5096994;28;20207;-62
2022/02/04 07:56:35;;;;;;;12.15;8.23;;;;;;;;;;5096200;28;20201;-62
2022/02/04 07:59:08;;;;;;;11.23;8.85;;;;;;;;;;5096378;28;20193;-63
2022/02/04 08:01:36;;;;;;;11.65;8.45;;;;;;;;;;5096190;28;20700;-62
2022/02/04 08:04:10;;;;;;;10.75;8.45;;;;;;;;;;5096771;28;20394;-62
2022/02/04 08:06:41;;;;;;;12.52;7.85;;;;;;;;;;5096154;28;20192;-62
2022/02/04 08:09:17;;;;;;;10.38;8.85;;;;;;;;;;5096815;28;20235;-62
2022/02/04 08:12:00;;;;;;;9.82;8.15;;;;;;;;;;5096836;28;20200;-63
2022/02/04 08:14:57;;;;;;;11.38;8.40;;;;;;;;;;5095977;28;20189;-62
2022/02/04 08:23:21;;;;;;;7.38;6.63;;;;;;;;;;5092983;28;20374;-62
2022/02/04 08:26:21;;;;;;;8.77;6.95;;;;;;;;;;5095975;28;20638;-62
2022/02/04 08:29:14;;;;;;;11.63;6.82;;;;;;;;;;5096185;28;20262;-62
2022/02/04 08:32:09;;;;;;;9.45;6.25;;;;;;;;;;5095857;28;20201;-62
2022/02/04 08:54:15;;;;;;;10.90;7.05;;;;;;;;;;5032955;28;20207;-62
2022/02/04 08:56:55;;;;;;;9.13;6.25;;;;;;;;;;5032916;28;20334;-62
2022/02/04 08:59:30;;;;;;;8.40;6.28;;;;;;;;;;5069932;28;20561;-62
2022/02/04 09:02:03;;;;;;;6.53;5.18;;;;;;;;;;5095397;28;20200;-62
2022/02/04 09:04:37;;;;;;;8.48;7.22;;;;;;;;;;5094990;28;20193;-62
2022/02/04 09:07:08;;;;;;;8.23;7.43;;;;;;;;;;5094967;28;20192;-62
2022/02/04 09:09:51;;;;;;;10.50;7.90;;;;;;;;;;5094945;28;20192;-62
2022/02/04 09:18:33;;;;;;;10.63;8.00;;;;;;;;;;5094851;28;20199;-62
2022/02/04 09:21:14;;;;;;;12.60;8.05;;;;;;;;;;5094671;28;20196;-63
2022/02/04 09:23:41;;;;;;;9.27;6.68;;;;;;;;;;5094480;28;20218;-63
2022/02/04 09:26:09;;;;;;;9.13;7.70;;;;;;;;;;5094015;28;20190;-63
2022/02/04 09:28:37;;;;;;;8.98;7.70;;;;;;;;;;5094424;28;20231;-63
2022/02/04 09:31:05;;;;;;;11.20;8.10;;;;;;;;;;5094793;28;20193;-63
2022/02/04 09:33:32;;;;;;;9.65;8.60;;;;;;;;;;5094695;28;20288;-63
2022/02/04 09:36:01;;;;;;;8.10;7.30;;;;;;;;;;5094383;28;20201;-63
2022/02/04 09:38:28;;;;;;;8.70;7.78;;;;;;;;;;5094282;28;20229;-63
2022/02/04 09:40:55;;;;;;;10.55;8.68;;;;;;;;;;5094904;28;20643;-62
2022/02/04 09:43:23;;;;;;;8.60;7.68;;;;;;;;;;5094427;28;20224;-63
2022/02/04 09:45:51;;;;;;;10.38;8.35;;;;;;;;;;5094919;28;20232;-63
2022/02/04 09:48:19;;;;;;;10.23;8.45;;;;;;;;;;5094638;28;20197;-63
2022/02/04 09:50:50;;;;;;;8.63;7.72;;;;;;;;;;5093575;28;20666;-62
2022/02/04 10:07:37;;;;;;;8.30;7.45;;;;;;;;;;5131674;27;20572;-62
2022/02/04 10:10:41;;;;;;;9.60;7.57;;;;;;;;;;5131931;28;20236;-63
2022/02/04 10:13:37;;;;;;;8.55;7.72;;;;;;;;;;5131976;28;20204;-63
2022/02/04 10:16:25;;;;;;;9.15;7.50;;;;;;;;;;5132056;27;20603;-63
2022/02/04 10:19:11;;;;;;;9.98;7.20;;;;;;;;;;5131795;27;20194;-63
2022/02/04 10:21:39;;;;;;;6.93;6.28;;;;;;;;;;5131237;28;20187;-62
2022/02/04 10:24:10;;;;;;;7.83;7.10;;;;;;;;;;5131251;28;20657;-63
2022/02/04 10:26:37;;;;;;;7.70;6.35;;;;;;;;;;5132071;28;20521;-63
2022/02/04 10:29:05;;;;;;;7.25;6.40;;;;;;;;;;5131483;28;20192;-63
2022/02/04 10:31:32;;;;;;;8.93;7.65;;;;;;;;;;5131444;28;20360;-63
2022/02/04 10:34:01;;;;;;;7.88;6.63;;;;;;;;;;5130963;28;20295;-64
2022/02/04 10:36:43;;;;;;;7.05;6.45;;;;;;;;;;5130963;28;20254;-63
2022/02/04 10:39:35;;;;;;;7.45;6.75;;;;;;;;;;5131783;28;20539;-62
2022/02/04 10:42:13;;;;;;;7.57;5.70;;;;;;;;;;5131006;28;20206;-63
2022/02/04 10:44:54;;;;;;;6.55;5.93;;;;;;;;;;5130837;28;20180;-63
2022/02/04 10:47:32;;;;;;;5.88;5.30;;;;;;;;;;5131796;27;20208;-62
2022/02/04 10:50:08;;;;;;;8.05;7.13;;;;;;;;;;5131321;28;20282;-63
2022/02/04 10:52:57;;;;;;;6.07;5.47;;;;;;;;;;5131062;27;20181;-62
2022/02/04 10:56:03;;;;;;;6.80;6.10;;;;;;;;;;5130591;28;20283;-63
2022/02/04 10:58:56;;;;;;;5.97;5.47;;;;;;;;;;5130836;28;20809;-63
2022/02/04 11:01:34;;;;;;;6.33;5.70;;;;;;;;;;5130469;28;20284;-63
2022/02/04 11:04:04;;;;;;;5.88;5.35;;;;;;;;;;5130847;28;20839;-63
2022/02/04 11:06:47;;;;;;;6.30;5.65;;;;;;;;;;5130156;28;20276;-63
2022/02/04 11:09:27;;;;;;;5.38;4.68;;;;;;;;;;5131135;28;20264;-63
2022/02/04 11:12:09;;;;;;;6.07;5.47;;;;;;;;;;5131384;28;20180;-62
2022/02/04 11:31:19;;;;;;;7.57;6.80;;;;;;;;;;5116570;28;20175;-64
2022/02/04 11:54:46;;;;;;;13.80;7.40;;;;;;;;;;5107094;28;20193;-62
2022/02/04 11:57:21;;;;;;;8.05;7.28;;;;;;;;;;5117019;28;20185;-62
2022/02/04 11:59:53;;;;;;;6.65;5.95;;;;;;;;;;5116781;28;20192;-62
2022/02/04 12:02:34;;;;;;;6.47;5.82;;;;;;;;;;5116156;28;20181;-62
2022/02/04 12:05:20;;;;;;;6.88;6.28;;;;;;;;;;5115826;28;20199;-62
2022/02/04 12:07:50;;;;;;;6.50;5.22;;;;;;;;;;5115788;28;20228;-62
2022/02/04 12:10:21;;;;;;;5.32;4.93;;;;;;;;;;5116550;28;20238;-62
2022/02/04 12:13:07;;;;;;;5.47;4.97;;;;;;;;;;5115904;28;20284;-62
2022/02/04 12:15:35;;;;;;;4.68;4.28;;;;;;;;;;5115573;28;20191;-62
2022/02/04 12:18:03;;;;;;;4.88;4.35;;;;;;;;;;5115437;28;20652;-62
2022/02/04 12:20:50;;;;;;;4.43;4.05;;;;;;;;;;5116200;28;20708;-62
2022/02/04 12:23:33;;;;;;;6.13;3.80;;;;;;;;;;5115731;27;20195;-63
2022/02/04 12:26:02;;;;;;;4.30;4.00;;;;;;;;;;5115134;28;20216;-63
2022/02/04 12:28:38;;;;;;;3.70;3.45;;;;;;;;;;5114507;28;20201;-62
2022/02/04 12:31:08;;;;;;;3.88;3.58;;;;;;;;;;5115347;28;20196;-63
2022/02/04 12:33:40;;;;;;;2.85;2.65;;;;;;;;;;5115585;28;20200;-63
2022/02/04 12:36:12;;;;;;;2.77;2.57;;;;;;;;;;5115128;28;20243;-62
2022/02/04 12:38:40;;;;;;;3.45;3.22;;;;;;;;;;5115702;28;20455;-63
2022/02/04 12:41:08;;;;;;;3.00;2.80;;;;;;;;;;5115452;28;20219;-63
2022/02/04 12:43:36;;;;;;;2.90;2.70;;;;;;;;;;5115947;28;20294;-63
2022/02/04 12:46:04;;;;;;;3.35;3.15;;;;;;;;;;5115363;28;20583;-63
2022/02/04 12:48:31;;;;;;;3.67;3.38;;;;;;;;;;5114838;28;20204;-64
2022/02/04 12:50:59;;;;;;;3.97;3.67;;;;;;;;;;5114752;28;20196;-63
2022/02/04 12:53:28;;;;;;;2.90;2.70;;;;;;;;;;5114958;28;20196;-63
2022/02/04 12:56:05;;;;;;;3.50;3.30;;;;;;;;;;5114411;28;20672;-68
2022/02/04 12:59:08;;;;;;;3.20;3.00;;;;;;;;;;5115091;28;20215;-62
2022/02/04 13:07:36;;;;;;;3.20;2.97;;;;;;;;;;5114284;28;20288;-62
2022/02/04 13:10:03;;;;;;;2.72;2.53;;;;;;;;;;5113930;28;20188;-63
2022/02/04 13:12:31;;;;;;;2.97;2.70;;;;;;;;;;5114169;28;20207;-63
2022/02/04 13:15:12;;;;;;;3.55;2.53;;;;;;;;;;5114339;28;20189;-62
2022/02/04 13:17:39;;;;;;;1.88;1.77;;;;;;;;;;5114876;28;20197;-62
2022/02/04 13:20:07;;;;;;;2.35;2.25;;;;;;;;;;5114617;28;20236;-62
2022/02/04 13:22:34;;;;;;;2.15;1.92;;;;;;;;;;5114467;28;20281;-62
2022/02/04 13:25:09;;;;;;;2.60;2.30;;;;;;;;;;5114510;28;20220;-62
2022/02/04 13:27:36;;;;;;;2.65;2.45;;;;;;;;;;5114297;28;20215;-62
2022/02/04 13:30:18;;;;;;;2.72;2.53;;;;;;;;;;5114091;28;20288;-64
2022/02/04 13:32:47;;;;;;;2.50;2.30;;;;;;;;;;5113804;28;20284;-63
2022/02/04 13:35:25;;;;;;;2.28;2.08;;;;;;;;;;5114100;28;20196;-62
2022/02/04 13:37:55;;;;;;;3.05;2.75;;;;;;;;;;5113908;28;20201;-62
2022/02/04 13:40:33;;;;;;;2.85;2.65;;;;;;;;;;5113641;28;20284;-63
2022/02/04 13:43:17;;;;;;;2.17;1.98;;;;;;;;;;5114951;28;20278;-62
2022/02/04 13:45:56;;;;;;;3.65;3.00;;;;;;;;;;5113742;27;20283;-62
2022/02/04 13:48:40;;;;;;;4.28;3.70;;;;;;;;;;5114156;28;20188;-63
2022/02/04 13:51:18;;;;;;;8.73;3.90;;;;;;;;;;5114281;28;20184;-62
2022/02/04 13:54:03;;;;;;;3.78;3.45;;;;;;;;;;5114989;28;20185;-61
2022/02/04 13:56:41;;;;;;;4.03;3.63;;;;;;;;;;5113646;28;20571;-62
2022/02/04 13:59:16;;;;;;;4.28;3.97;;;;;;;;;;5114211;28;20188;-62
2022/02/04 14:01:54;;;;;;;4.47;4.05;;;;;;;;;;5113785;28;20212;-62
2022/02/04 14:04:23;;;;;;;4.55;3.90;;;;;;;;;;5114327;28;20180;-62
2022/02/04 14:06:51;;;;;;;5.75;4.40;;;;;;;;;;5113957;28;20256;-62
2022/02/04 14:09:21;;;;;;;8.15;4.90;;;;;;;;;;5113960;28;20560;-62
2022/02/04 14:11:49;;;;;;;3.80;3.50;;;;;;;;;;5113746;28;20253;-62
2022/02/04 14:14:21;;;;;;;6.93;3.90;;;;;;;;;;5113926;28;20255;-62
2022/02/04 14:16:53;;;;;;;8.32;6.40;;;;;;;;;;5114008;28;20283;-62
2022/02/04 14:19:23;;;;;;;5.35;4.55;;;;;;;;;;5113887;28;20183;-63
2022/02/04 14:21:52;;;;;;;4.95;4.30;;;;;;;;;;5113605;28;20173;-62
2022/02/04 14:24:21;;;;;;;8.65;5.38;;;;;;;;;;5113542;28;20188;-62
2022/02/04 14:26:51;;;;;;;5.70;5.00;;;;;;;;;;5113872;28;20240;-62
2022/02/04 14:29:23;;;;;;;9.65;5.10;;;;;;;;;;5114035;28;20680;-64
2022/02/04 14:31:56;;;;;;;8.32;4.97;;;;;;;;;;5113470;28;20260;-63
2022/02/04 14:37:15;;;;;;;7.07;3.75;;;;;;;;;;5113370;28;20192;-62
2022/02/04 14:51:22;;;;;;;5.00;4.32;;;;;;;;;;5113503;28;20517;-62
2022/02/04 14:54:02;;;;;;;4.97;4.57;;;;;;;;;;5117090;28;20203;-62
2022/02/04 15:00:03;;;;;;;4.63;4.22;;;;;;;;;;5117273;28;20547;-61
2022/02/04 15:02:14;;;;;;;5.20;4.70;;;;;;;;;;5116955;28;20518;-61
2022/02/04 15:04:46;;;;;;;4.78;4.38;;;;;;;;;;5117302;28;20275;-62
2022/02/04 15:07:18;;;;;;;5.72;4.13;;;;;;;;;;5117489;28;20277;-62
2022/02/04 15:09:56;;;;;;;4.50;3.58;;;;;;;;;;5117303;28;20547;-62
2022/02/04 15:12:26;;;;;;;4.20;3.80;;;;;;;;;;5117610;28;20257;-61
2022/02/04 15:14:58;;;;;;;4.05;3.40;;;;;;;;;;5117531;28;20584;-61
2022/02/04 15:17:25;;;;;;;5.88;3.53;;;;;;;;;;5117201;28;20204;-62
2022/02/04 15:19:52;;;;;;;3.40;3.10;;;;;;;;;;5117004;28;20223;-62
2022/02/04 15:22:26;;;;;;;5.38;2.92;;;;;;;;;;5116889;28;20189;-61
2022/02/04 15:25:01;;;;;;;3.10;2.80;;;;;;;;;;5116739;28;20213;-62
2022/02/04 15:27:29;;;;;;;3.90;3.60;;;;;;;;;;5117384;28;20532;-62
2022/02/04 15:29:57;;;;;;;3.47;2.58;;;;;;;;;;5117269;28;20559;-62
2022/02/04 15:32:24;;;;;;;4.13;2.95;;;;;;;;;;5116808;28;20185;-62
2022/02/04 15:34:53;;;;;;;5.90;3.72;;;;;;;;;;5116943;28;20325;-61
2022/02/04 15:37:22;;;;;;;5.47;2.95;;;;;;;;;;5116333;28;20210;-61
2022/02/04 15:39:50;;;;;;;5.03;3.80;;;;;;;;;;5116914;28;20207;-61
2022/02/04 15:42:20;;;;;;;3.97;3.47;;;;;;;;;;5116377;28;20196;-61
2022/02/04 15:45:11;;;;;;;4.38;3.45;;;;;;;;;;5116653;28;20231;-61
2022/02/04 15:47:52;;;;;;;3.20;2.80;;;;;;;;;;5116552;28;20199;-61
2022/02/04 15:50:28;;;;;;;5.45;3.25;;;;;;;;;;5116657;27;20187;-62
2022/02/04 15:53:16;;;;;;;3.85;3.35;;;;;;;;;;5117370;28;20259;-61
2022/02/04 15:56:08;;;;;;;7.72;4.35;;;;;;;;;;5116686;28;20517;-61
2022/02/04 15:58:53;;;;;;;5.90;3.85;;;;;;;;;;5117167;28;20195;-61
2022/02/04 16:01:28;;;;;;;4.47;3.55;;;;;;;;;;5116708;28;20183;-62
2022/02/04 16:04:03;;;;;;;3.55;3.22;;;;;;;;;;5116746;28;20199;-61
2022/02/04 16:06:31;;;;;;;7.57;4.00;;;;;;;;;;5116162;28;20224;-61
2022/02/04 16:08:58;;;;;;;4.47;4.05;;;;;;;;;;5116021;28;20196;-61
2022/02/04 16:11:45;;;;;;;5.68;3.75;;;;;;;;;;5116325;28;20280;-62
2022/02/04 16:14:18;;;;;;;7.25;3.90;;;;;;;;;;5116304;28;20180;-62
2022/02/04 16:16:50;;;;;;;4.85;3.80;;;;;;;;;;5116244;28;20186;-61
2022/02/04 16:19:29;;;;;;;4.18;3.42;;;;;;;;;;5116243;28;20184;-61
2022/02/04 16:25:12;;;;;;;3.70;3.30;;;;;;;;;;5110105;28;20222;-62
2022/02/04 16:30:28;;;;;;;6.95;3.80;;;;;;;;;;5115526;28;20172;-61
2022/02/04 16:32:55;;;;;;;5.72;5.07;;;;;;;;;;5115584;28;20275;-61
2022/02/04 16:35:22;;;;;;;6.15;4.60;;;;;;;;;;5115385;28;20260;-61
2022/02/04 16:38:01;;;;;;;4.88;3.70;;;;;;;;;;5115220;28;20199;-61
2022/02/04 16:40:28;;;;;;;7.18;4.40;;;;;;;;;;5115001;28;20245;-62
2022/02/04 16:42:56;;;;;;;6.60;4.68;;;;;;;;;;5115866;28;20196;-62
2022/02/04 16:45:23;;;;;;;6.50;4.65;;;;;;;;;;5115637;28;20227;-62
2022/02/04 16:47:52;;;;;;;11.55;5.07;;;;;;;;;;5115432;28;20226;-61
2022/02/04 16:50:21;;;;;;;8.68;5.50;;;;;;;;;;5115290;28;20192;-62
2022/02/04 16:52:49;;;;;;;5.28;4.32;;;;;;;;;;5115262;28;20265;-62
2022/02/04 16:55:17;;;;;;;1.55;1.45;;;;;;;;;;5115160;28;20194;-61
2022/02/04 16:57:44;;;;;;;1.15;1.15;;;;;;;;;;5119253;28;20198;-63
2022/02/04 17:00:20;;;;;;;1.70;1.60;;;;;;;;;;5114782;28;20187;-63
2022/02/04 17:02:48;;;;;;;1.40;1.30;;;;;;;;;;5115294;28;20223;-63
2022/02/04 17:05:18;;;;;;;1.33;1.23;;;;;;;;;;5114452;28;20710;-62
2022/02/04 17:07:52;;;;;;;1.80;1.70;;;;;;;;;;5115024;28;20213;-62
2022/02/04 17:10:26;;;;;;;1.80;1.70;;;;;;;;;;5115490;28;20231;-62
2022/02/04 17:12:58;;;;;;;1.90;1.80;;;;;;;;;;5115335;28;20269;-63
2022/02/04 17:15:26;;;;;;;1.70;1.60;;;;;;;;;;5114104;28;20189;-62
2022/02/04 17:17:53;;;;;;;1.58;1.48;;;;;;;;;;5114813;28;20201;-64
2022/02/04 17:20:22;;;;;;;2.10;2.00;;;;;;;;;;5114778;28;20309;-63
2022/02/04 17:22:50;;;;;;;1.80;1.65;;;;;;;;;;5114643;28;20249;-63
2022/02/04 17:25:17;;;;;;;1.52;1.42;;;;;;;;;;5114729;28;20191;-63
2022/02/04 17:27:46;;;;;;;1.75;1.65;;;;;;;;;;5115005;28;20294;-63
2022/02/04 17:30:15;;;;;;;1.55;1.45;;;;;;;;;;5114861;28;20215;-62
2022/02/04 17:32:44;;;;;;;2.08;1.98;;;;;;;;;;5114326;28;20639;-63
2022/02/04 17:35:12;;;;;;;2.45;2.10;;;;;;;;;;5114996;28;20195;-63
2022/02/04 17:37:41;;;;;;;3.35;2.55;;;;;;;;;;5114110;28;20209;-63
2022/02/04 17:40:09;;;;;;;3.15;2.53;;;;;;;;;;5114112;28;20212;-63
2022/02/04 17:42:39;;;;;;;3.38;3.08;;;;;;;;;;5115184;28;20643;-63
2022/02/04 17:45:09;;;;;;;2.80;2.60;;;;;;;;;;5114169;28;20261;-63
2022/02/04 17:47:37;;;;;;;3.20;2.38;;;;;;;;;;5114289;28;20253;-63
2022/02/04 17:50:09;;;;;;;2.50;2.40;;;;;;;;;;5114935;28;20279;-62
2022/02/04 17:52:41;;;;;;;2.92;2.70;;;;;;;;;;5114255;28;20646;-62
2022/02/04 17:55:14;;;;;;;2.35;2.15;;;;;;;;;;5114383;28;20219;-63
2022/02/04 17:57:44;;;;;;;2.60;2.40;;;;;;;;;;5113999;28;20183;-63
2022/02/04 18:03:07;;;;;;;2.55;2.38;;;;;;;;;;5113923;28;20187;-62
2022/02/04 18:05:43;;;;;;;3.13;2.92;;;;;;;;;;5113595;28;20251;-64
2022/02/04 18:08:10;;;;;;;2.70;2.50;;;;;;;;;;5114204;28;20187;-63
2022/02/04 18:10:39;;;;;;;3.40;3.13;;;;;;;;;;5113801;28;20516;-64
2022/02/04 18:13:08;;;;;;;2.80;2.60;;;;;;;;;;5112917;28;20214;-63
2022/02/04 18:15:40;;;;;;;2.47;2.35;;;;;;;;;;5114016;28;20214;-63
2022/02/04 18:18:08;;;;;;;3.05;2.85;;;;;;;;;;5113572;28;20192;-62
2022/02/04 18:20:35;;;;;;;3.00;2.80;;;;;;;;;;5114054;28;20185;-62
2022/02/04 18:23:03;;;;;;;3.20;3.00;;;;;;;;;;5113941;28;20189;-62
2022/02/04 18:25:31;;;;;;;3.05;2.28;;;;;;;;;;5114182;28;20200;-62
2022/02/04 18:27:59;;;;;;;2.22;2.10;;;;;;;;;;5115743;28;20209;-63
2022/02/04 18:30:35;;;;;;;6.03;2.00;;;;;;;;;;5117806;28;20638;-63
2022/02/04 18:33:03;;;;;;;1.90;1.80;;;;;;;;;;5118057;28;20181;-63
2022/02/04 18:35:30;;;;;;;2.55;2.40;;;;;;;;;;5117458;28;20217;-63
2022/02/04 18:38:07;;;;;;;4.20;2.42;;;;;;;;;;5117802;28;20219;-63
2022/02/04 18:43:38;;;;;;;5.60;2.60;;;;;;;;;;5101472;27;20198;-62
2022/02/04 18:46:17;;;;;;;2.65;2.00;;;;;;;;;;5117472;28;20181;-62
2022/02/04 18:48:48;;;;;;;3.40;2.15;;;;;;;;;;5117918;28;20202;-63
2022/02/04 18:51:36;;;;;;;2.50;2.30;;;;;;;;;;5117443;28;20232;-62
2022/02/04 18:54:16;;;;;;;3.45;2.70;;;;;;;;;;5117325;28;20231;-63
2022/02/04 18:57:07;;;;;;;2.90;2.25;;;;;;;;;;5118006;28;20224;-62
2022/02/04 18:59:44;;;;;;;1.80;1.50;;;;;;;;;;5117666;28;20194;-62
2022/02/04 19:02:11;;;;;;;2.95;1.98;;;;;;;;;;5117545;28;20181;-63
2022/02/04 19:04:44;;;;;;;4.55;2.30;;;;;;;;;;5117185;28;20278;-62
2022/02/04 19:07:17;;;;;;;6.50;2.65;;;;;;;;;;5117088;28;20267;-62
2022/02/04 19:09:48;;;;;;;3.90;3.42;;;;;;;;;;5117360;28;20195;-62
2022/02/04 19:12:19;;;;;;;2.85;2.22;;;;;;;;;;5100892;28;20188;-62
2022/02/04 19:14:54;;;;;;;5.60;2.55;;;;;;;;;;5096799;28;20178;-63
2022/02/04 19:17:29;;;;;;;4.43;3.15;;;;;;;;;;5096738;28;20223;-66
2022/02/04 19:20:01;;;;;;;3.45;2.70;;;;;;;;;;5097769;28;20274;-64
2022/02/04 19:22:33;;;;;;;3.65;3.10;;;;;;;;;;5096533;28;20212;-63
2022/02/04 19:25:04;;;;;;;7.22;2.60;;;;;;;;;;5096647;28;20185;-64